»·PEaware :: SWA442 KPHX-KSNA

SWA442 :: KPHX-KSNA

FLIGHT INFORMATION

Flight Status: Arrived
Operator:
Southwest Airlines
More flights by this operator :: More flights under this callsign
Pilot: Eric M. (17640)
Aircraft: BOEING 737-800
(B738)
More flights by this aircraft type
Origin: KPHX Phoenix Sky Harbor Intl
United States
Destination: KSNA John Wayne-Orange Co
United States
More flights between these airports :: More routes between these airports
Route: KEENS2 HRRBR EMLLD DSNEE4
File this flight plan on PilotEdge
Remarks:
Altitude:
(Current/Filed)
30,000ft
Speed:
(Current/Filed)
450kts
Departed: 02-Dec-18 06:09 PM
Arrived: 02-Dec-18 07:21 PM
Distance/Time
Traveled:
294nm/1:11
Distance/Time
To Go:
Arrived

Flight Plot

Page will automatically refresh every two minutes.

Flight plan parsing failed; only flown route is shown


Map Options




Map Legend


Flown Route
Filed Route
Departure Airport
Arrival Airport
Navaid (VOR, NDB)
Fix

Horizontal Profiles

Position Reports

Time Latitude Longitude Heading Altitude Ground
Speed
02-Dec-18 17:55 33.437855 -111.999837 90 1116ft 0kts
02-Dec-18 17:56 33.437855 -111.999837 90 1116ft 0kts
02-Dec-18 17:57 33.437855 -111.999837 90 1116ft 0kts
02-Dec-18 17:58 33.437855 -111.999837 90 1116ft 0kts
02-Dec-18 17:59 33.437855 -111.999837 90 1116ft 0kts
02-Dec-18 18:00 33.437855 -111.999837 90 1116ft 0kts
02-Dec-18 18:01 33.437855 -111.999837 90 1116ft 0kts
02-Dec-18 18:02 33.437855 -111.999837 90 1116ft 0kts
02-Dec-18 18:03 33.437855 -111.999837 90 1116ft 0kts
02-Dec-18 18:04 33.437855 -111.999837 90 1116ft 0kts
02-Dec-18 18:05 33.437855 -111.999837 90 1116ft 0kts
02-Dec-18 18:06 33.437855 -111.999837 90 1116ft 0kts
02-Dec-18 18:07 33.437855 -112.000043 89 1116ft 5kts
02-Dec-18 18:08 33.437855 -112.000322 89 1116ft 0kts
02-Dec-18 18:09 33.437985 -112.000243 5 1116ft 7kts
02-Dec-18 18:10 33.439011 -112.005025 268 1116ft 24kts
02-Dec-18 18:11 33.438994 -112.013386 268 1116ft 40kts
02-Dec-18 18:12 33.439015 -112.024669 269 1116ft 43kts
02-Dec-18 18:13 33.439938 -112.029674 0 1116ft 0kts
02-Dec-18 18:14 33.440864 -112.025188 91 1116ft 86kts
02-Dec-18 18:15 33.440339 -111.961345 93 3208ft 187kts
02-Dec-18 18:16 33.429754 -111.881434 108 5422ft 233kts
02-Dec-18 18:17 33.370402 -111.842143 203 7688ft 247kts
02-Dec-18 18:18 33.334568 -111.907982 274 9863ft 248kts
02-Dec-18 18:19 33.363343 -111.990000 282 12065ft 297kts
02-Dec-18 18:20 33.374879 -112.087303 281 14534ft 319kts
02-Dec-18 18:21 33.390684 -112.194122 282 17377ft 322kts
02-Dec-18 18:22 33.406476 -112.301166 282 19835ft 325kts
02-Dec-18 18:23 33.422249 -112.408544 282 22020ft 327kts
02-Dec-18 18:24 33.438123 -112.517172 282 23934ft 329kts
02-Dec-18 18:25 33.451706 -112.629552 275 25708ft 334kts
02-Dec-18 18:26 33.452155 -112.745202 274 27342ft 337kts
02-Dec-18 18:27 33.463176 -112.859056 284 28772ft 338kts
02-Dec-18 18:28 33.484705 -112.971375 283 30035ft 341kts
02-Dec-18 18:29 33.506440 -113.087884 283 30061ft 365kts
02-Dec-18 18:30 33.528781 -113.208407 283 30063ft 378kts
02-Dec-18 18:31 33.552058 -113.334669 283 30055ft 381kts
02-Dec-18 18:32 33.575113 -113.460452 283 30053ft 380kts
02-Dec-18 18:33 33.598230 -113.585670 283 30048ft 380kts
02-Dec-18 18:34 33.621321 -113.710581 283 30057ft 382kts
02-Dec-18 18:35 33.644572 -113.835983 283 30053ft 381kts
02-Dec-18 18:36 33.684043 -113.954778 293 30054ft 383kts
02-Dec-18 18:37 33.729299 -114.071724 293 30055ft 380kts
02-Dec-18 18:38 33.763829 -114.194309 280 30058ft 382kts
02-Dec-18 18:39 33.778958 -114.323548 280 30056ft 383kts
02-Dec-18 18:40 33.793913 -114.452554 280 30053ft 382kts
02-Dec-18 18:41 33.808904 -114.582894 280 30051ft 382kts
02-Dec-18 18:42 33.823449 -114.711182 279 30070ft 383kts
02-Dec-18 18:43 33.837806 -114.839427 279 30065ft 381kts
02-Dec-18 18:44 33.852054 -114.967163 279 30062ft 381kts
02-Dec-18 18:45 33.866243 -115.094826 279 30047ft 385kts
02-Dec-18 18:46 33.880525 -115.224325 279 30026ft 386kts
02-Dec-18 18:47 33.893823 -115.346283 279 30033ft 352kts
02-Dec-18 18:48 33.906259 -115.461118 279 30038ft 336kts
02-Dec-18 18:49 33.918819 -115.577967 279 30011ft 365kts
02-Dec-18 18:50 33.930403 -115.703446 276 30030ft 387kts
02-Dec-18 18:51 33.939203 -115.831985 276 30052ft 368kts
02-Dec-18 18:52 33.947498 -115.951252 276 30051ft 349kts
02-Dec-18 18:53 33.955594 -116.068350 276 30041ft 349kts
02-Dec-18 18:54 33.963705 -116.186871 276 29047ft 360kts
02-Dec-18 18:55 33.952574 -116.304105 265 26548ft 344kts
02-Dec-18 18:56 33.938578 -116.415697 266 24226ft 331kts
02-Dec-18 18:57 33.925068 -116.524631 266 22247ft 325kts
02-Dec-18 18:58 33.911277 -116.632909 265 20262ft 329kts
02-Dec-18 18:59 33.896788 -116.744218 264 18280ft 334kts
02-Dec-18 19:00 33.884172 -116.855525 265 16165ft 336kts
02-Dec-18 19:01 33.872320 -116.963536 266 14277ft 313kts
02-Dec-18 19:02 33.861225 -117.063914 267 12651ft 298kts
02-Dec-18 19:03 33.850241 -117.162876 267 10908ft 298kts
02-Dec-18 19:04 33.841362 -117.241596 267 10333ft 268kts
02-Dec-18 19:05 33.829825 -117.344603 266 9147ft 272kts
02-Dec-18 19:06 33.821420 -117.418511 266 8279ft 264kts
02-Dec-18 19:07 33.796642 -117.521681 262 6422ft 282kts
02-Dec-18 19:08 33.795597 -117.594759 274 6021ft 243kts
02-Dec-18 19:09 33.797087 -117.686070 273 5995ft 229kts
02-Dec-18 19:10 33.797993 -117.743989 272 5989ft 192kts
02-Dec-18 19:11 33.798546 -117.799209 271 5989ft 165kts
02-Dec-18 19:12 33.799499 -117.845324 271 6002ft 182kts
02-Dec-18 19:13 33.800820 -117.888246 271 5995ft 192kts
02-Dec-18 19:14 33.802112 -117.936005 271 5994ft 196kts
02-Dec-18 19:15 33.803082 -117.976368 271 5991ft 197kts
02-Dec-18 19:16 33.806248 -118.014373 261 5821ft 206kts
02-Dec-18 19:17 33.768265 -118.051158 185 4409ft 255kts
02-Dec-18 19:18 33.722128 -118.000724 111 3538ft 207kts
02-Dec-18 19:19 33.704972 -117.936474 87 2641ft 187kts
02-Dec-18 19:20 33.731747 -117.885802 37 2641ft 166kts
02-Dec-18 19:21 33.778814 -117.845492 60 3193ft 187kts
02-Dec-18 19:22 33.751202 -117.817990 221 2341ft 194kts
02-Dec-18 19:23 33.707329 -117.849130 208 573ft 139kts
02-Dec-18 19:24 33.673685 -117.870124 208 64ft 28kts
02-Dec-18 19:25 33.668665 -117.871658 190 64ft 18kts
02-Dec-18 19:26 33.665314 -117.873575 164 64ft 0kts

Navigation Log

Ident Type
Flight plan parsing failed, navigation log unavailable